createdAt,value
2022-12-14T00:01:49.634Z,13.80
2022-12-14T00:04:17.594Z,13.20
2022-12-14T00:06:46.709Z,14.25
2022-12-14T00:09:14.471Z,13.50
2022-12-14T00:11:42.205Z,13.80
2022-12-14T00:14:09.905Z,12.82
2022-12-14T00:16:37.780Z,13.73
2022-12-14T00:19:05.770Z,12.60
2022-12-14T00:21:33.597Z,13.98
2022-12-14T00:24:03.022Z,13.75
2022-12-14T00:26:32.349Z,13.75
2022-12-14T00:29:01.952Z,12.73
2022-12-14T00:31:30.136Z,13.00
2022-12-14T00:33:58.046Z,13.85
2022-12-14T00:36:25.855Z,14.07
2022-12-14T00:38:53.779Z,12.15
2022-12-14T00:41:22.884Z,12.90
2022-12-14T00:43:50.565Z,11.65
2022-12-14T00:46:18.585Z,13.48
2022-12-14T00:48:46.449Z,13.25
2022-12-14T00:51:15.104Z,13.05
2022-12-14T00:53:43.021Z,13.95
2022-12-14T00:56:11.684Z,12.93
2022-12-14T00:58:40.882Z,13.45
2022-12-14T01:01:13.263Z,12.10
2022-12-14T01:03:41.274Z,13.35
2022-12-14T01:06:14.992Z,12.93
2022-12-14T01:08:42.638Z,13.63
2022-12-14T01:11:11.139Z,13.65
2022-12-14T01:13:41.623Z,15.25
2022-12-14T01:16:12.275Z,13.95
2022-12-14T01:18:42.290Z,14.63
2022-12-14T01:21:12.852Z,15.13
2022-12-14T01:23:41.992Z,13.65
2022-12-14T01:26:09.709Z,14.98
2022-12-14T01:28:37.628Z,15.02
2022-12-14T01:31:11.610Z,12.95
2022-12-14T01:33:39.769Z,14.57
2022-12-14T01:36:08.845Z,14.98
2022-12-14T01:38:37.081Z,15.80
2022-12-14T01:41:05.289Z,13.57
2022-12-14T01:43:49.858Z,13.93
2022-12-14T01:46:24.939Z,15.30
2022-12-14T01:48:56.529Z,14.75
2022-12-14T01:51:26.799Z,14.80
2022-12-14T01:53:56.648Z,13.93
2022-12-14T01:56:24.440Z,14.25
2022-12-14T01:58:52.078Z,13.70
2022-12-14T02:01:21.194Z,13.90
2022-12-14T02:03:52.527Z,15.35
2022-12-14T02:06:23.611Z,13.20
2022-12-14T02:08:53.479Z,15.65
2022-12-14T02:11:30.296Z,14.13
2022-12-14T02:13:57.975Z,13.55
2022-12-14T02:16:27.695Z,13.52
2022-12-14T02:18:55.453Z,13.70
2022-12-14T02:21:26.266Z,13.18
2022-12-14T02:24:43.625Z,13.27
2022-12-14T02:27:22.364Z,14.45
2022-12-14T02:30:03.557Z,13.75
2022-12-14T02:33:07.401Z,14.85
2022-12-14T02:35:49.181Z,14.32
2022-12-14T02:38:28.936Z,13.50
2022-12-14T02:41:07.229Z,13.95
2022-12-14T02:43:45.415Z,15.27
2022-12-14T02:46:22.119Z,13.43
2022-12-14T02:48:58.311Z,15.18
2022-12-14T02:51:36.719Z,14.10
2022-12-14T02:54:10.906Z,14.02
2022-12-14T02:56:48.268Z,15.10
2022-12-14T02:59:17.875Z,15.15
2022-12-14T03:01:50.063Z,14.50
2022-12-14T03:04:20.468Z,15.63
2022-12-14T03:06:58.830Z,16.30
2022-12-14T03:09:29.413Z,15.40
2022-12-14T03:12:01.593Z,17.45
2022-12-14T03:14:35.455Z,16.42
2022-12-14T03:17:11.837Z,16.08
2022-12-14T03:19:49.241Z,15.30
2022-12-14T03:22:19.675Z,15.55
2022-12-14T03:24:53.223Z,16.45
2022-12-14T03:27:25.201Z,16.27
2022-12-14T03:29:57.204Z,15.80
2022-12-14T03:32:29.088Z,15.77
2022-12-14T03:35:00.997Z,17.90
2022-12-14T03:37:35.870Z,18.10
2022-12-14T03:40:03.572Z,17.08
2022-12-14T03:42:36.837Z,16.65
2022-12-14T03:45:11.183Z,16.98
2022-12-14T03:47:55.761Z,18.85
2022-12-14T03:50:26.673Z,16.70
2022-12-14T03:53:02.896Z,16.92
2022-12-14T03:55:39.817Z,17.95
2022-12-14T03:58:23.552Z,20.15
2022-12-14T04:00:56.753Z,17.20
2022-12-14T04:03:31.141Z,17.50
2022-12-14T04:06:04.620Z,17.20
2022-12-14T04:08:39.815Z,18.70
2022-12-14T04:11:29.942Z,18.67
2022-12-14T04:14:34.357Z,17.48
2022-12-14T04:17:23.119Z,19.65
2022-12-14T04:19:57.965Z,18.20
2022-12-14T04:22:30.249Z,18.42
2022-12-14T04:25:27.535Z,19.85
2022-12-14T04:28:00.021Z,17.85
2022-12-14T04:30:29.520Z,18.95
2022-12-14T04:33:21.959Z,20.10
2022-12-14T04:35:52.914Z,20.05
2022-12-14T04:38:28.569Z,18.35
2022-12-14T04:41:00.596Z,17.40
2022-12-14T04:43:32.382Z,16.65
2022-12-14T04:46:06.401Z,16.92
2022-12-14T04:48:40.615Z,17.70
2022-12-14T04:51:16.288Z,16.33
2022-12-14T04:53:47.149Z,17.10
2022-12-14T04:56:23.766Z,17.45
2022-12-14T04:58:51.938Z,18.40
2022-12-14T05:01:36.273Z,17.48
2022-12-14T05:04:14.869Z,18.70
2022-12-14T05:06:52.418Z,17.38
2022-12-14T05:09:27.428Z,18.45
2022-12-14T05:12:05.439Z,19.65
2022-12-14T05:14:38.265Z,21.13
2022-12-14T05:17:09.274Z,20.20
2022-12-14T05:19:38.255Z,17.13
2022-12-14T05:22:09.119Z,18.30
2022-12-14T05:24:36.908Z,17.75
2022-12-14T05:27:04.689Z,17.67
2022-12-14T05:29:32.396Z,17.25
2022-12-14T05:32:00.885Z,18.30
2022-12-14T05:34:28.582Z,17.35
2022-12-14T05:36:56.254Z,17.30
2022-12-14T05:39:25.327Z,17.25
2022-12-14T05:41:53.560Z,19.00
2022-12-14T05:44:21.602Z,18.80
2022-12-14T05:46:49.319Z,19.10
2022-12-14T05:49:16.959Z,19.75
2022-12-14T05:51:44.608Z,21.17
2022-12-14T05:54:12.413Z,19.00
2022-12-14T05:56:41.601Z,17.88
2022-12-14T05:59:09.324Z,18.05
2022-12-14T06:01:37.950Z,20.10
2022-12-14T06:04:06.038Z,21.10
2022-12-14T06:06:34.478Z,19.33
2022-12-14T06:09:02.134Z,19.42
2022-12-14T06:11:29.876Z,19.30
2022-12-14T06:13:58.940Z,20.95
2022-12-14T06:16:27.941Z,19.00
2022-12-14T06:18:57.585Z,20.60
2022-12-14T06:21:27.263Z,18.92
2022-12-14T06:23:56.405Z,20.27
2022-12-14T06:26:24.741Z,23.73
2022-12-14T06:28:52.533Z,22.20
2022-12-14T06:31:23.777Z,25.58
2022-12-14T06:33:53.157Z,22.23
2022-12-14T06:36:23.933Z,23.52
2022-12-14T06:38:51.742Z,25.58
2022-12-14T06:41:20.252Z,25.38
2022-12-14T06:43:49.170Z,24.10
2022-12-14T06:46:19.512Z,25.42
2022-12-14T06:48:52.269Z,23.85
2022-12-14T06:51:20.231Z,24.83
2022-12-14T06:53:50.902Z,26.52
2022-12-14T06:56:19.718Z,26.10
2022-12-14T06:58:48.017Z,25.33
2022-12-14T07:01:18.888Z,25.30
2022-12-14T07:03:49.292Z,27.05
2022-12-14T07:06:18.651Z,28.75
2022-12-14T07:08:46.682Z,34.50
2022-12-14T07:11:16.438Z,24.75
2022-12-14T07:13:44.410Z,25.70
2022-12-14T07:16:15.654Z,26.25
2022-12-14T07:18:43.796Z,25.20
2022-12-14T07:21:13.298Z,25.20
2022-12-14T07:23:43.847Z,27.50
2022-12-14T07:26:13.712Z,25.85
2022-12-14T07:28:42.381Z,25.08
2022-12-14T07:31:14.447Z,26.63
2022-12-14T07:33:42.801Z,25.15
2022-12-14T07:36:12.700Z,24.88
2022-12-14T07:38:43.000Z,24.25
2022-12-14T07:41:12.320Z,25.83
2022-12-14T07:43:41.320Z,24.60
2022-12-14T07:46:11.610Z,23.48
2022-12-14T07:48:39.615Z,24.70
2022-12-14T07:51:09.823Z,25.30
2022-12-14T07:53:39.219Z,22.63
2022-12-14T07:56:11.889Z,23.30
2022-12-14T07:58:40.205Z,23.13
2022-12-14T08:01:13.579Z,22.67
2022-12-14T08:03:42.565Z,24.00
2022-12-14T08:06:11.728Z,24.73
2022-12-14T08:08:39.525Z,22.40
2022-12-14T08:11:09.924Z,23.73
2022-12-14T08:13:38.881Z,22.08
2022-12-14T08:16:08.290Z,21.65
2022-12-14T08:18:36.461Z,22.20
2022-12-14T08:21:05.779Z,22.35
2022-12-14T08:23:34.378Z,22.67
2022-12-14T08:26:03.523Z,22.17
2022-12-14T08:28:34.098Z,25.15
2022-12-14T08:31:06.227Z,21.73
2022-12-14T08:33:35.139Z,21.45
2022-12-14T08:36:07.924Z,23.85
2022-12-14T08:38:35.706Z,25.42
2022-12-14T08:41:04.957Z,24.75
2022-12-14T08:43:34.074Z,24.30
2022-12-14T08:46:02.597Z,23.35
2022-12-14T08:48:30.681Z,23.13
2022-12-14T08:51:02.412Z,22.48
2022-12-14T08:53:30.516Z,25.45
2022-12-14T08:55:58.737Z,24.70
2022-12-14T08:58:27.176Z,24.10
2022-12-14T09:01:03.254Z,24.33
2022-12-14T09:03:31.621Z,24.30
2022-12-14T09:06:03.336Z,25.45
2022-12-14T09:08:31.316Z,25.90
2022-12-14T09:10:59.091Z,25.45
2022-12-14T09:13:27.929Z,26.70
2022-12-14T09:16:00.627Z,23.63
2022-12-14T09:18:30.797Z,24.95
2022-12-14T09:20:58.819Z,24.00
2022-12-14T09:23:29.181Z,23.80
2022-12-14T09:26:02.356Z,25.85
2022-12-14T09:28:31.217Z,24.48
2022-12-14T09:30:59.854Z,22.90
2022-12-14T09:33:30.008Z,22.42
2022-12-14T09:36:01.971Z,24.83
2022-12-14T09:38:31.456Z,27.02
2022-12-14T09:41:04.823Z,28.27
2022-12-14T09:43:42.156Z,27.55
2022-12-14T09:46:23.706Z,25.92
2022-12-14T09:48:53.801Z,23.27
2022-12-14T09:51:23.808Z,24.20
2022-12-14T09:54:02.655Z,26.08
2022-12-14T09:56:31.499Z,27.48
2022-12-14T09:59:01.885Z,24.33
2022-12-14T10:02:30.439Z,25.40
2022-12-14T10:05:03.935Z,25.80
2022-12-14T10:07:41.834Z,25.60
2022-12-14T10:10:20.607Z,23.70
2022-12-14T10:12:58.496Z,24.17
2022-12-14T10:15:32.180Z,26.85
2022-12-14T10:18:49.567Z,24.60
2022-12-14T10:21:12.818Z,24.45
2022-12-14T10:23:46.244Z,23.80
2022-12-14T10:26:19.659Z,24.38
2022-12-14T10:28:56.383Z,24.67
2022-12-14T10:31:36.980Z,26.50
2022-12-14T10:34:19.765Z,26.90
2022-12-14T10:36:56.536Z,25.77
2022-12-14T10:39:34.404Z,25.75
2022-12-14T10:42:10.492Z,25.98
2022-12-14T10:44:44.444Z,26.02
2022-12-14T10:47:26.909Z,27.65
2022-12-14T10:50:03.262Z,29.55
2022-12-14T10:52:39.163Z,25.42
2022-12-14T10:55:15.488Z,29.42
2022-12-14T10:57:43.274Z,26.52
2022-12-14T11:00:22.562Z,27.60
2022-12-14T11:02:54.647Z,30.17
2022-12-14T11:05:38.385Z,28.48
2022-12-14T11:08:08.943Z,29.35
2022-12-14T11:10:39.468Z,27.40
2022-12-14T11:13:17.247Z,31.40
2022-12-14T11:15:47.026Z,27.58
2022-12-14T11:18:31.189Z,26.35
2022-12-14T11:21:01.266Z,27.73
2022-12-14T11:23:36.657Z,28.90
2022-12-14T11:26:08.647Z,27.10
2022-12-14T11:28:40.644Z,27.00
2022-12-14T11:31:13.181Z,25.75
2022-12-14T11:33:50.225Z,25.88
2022-12-14T11:36:25.686Z,27.55
2022-12-14T11:38:59.315Z,25.75
2022-12-14T11:41:31.027Z,25.77
2022-12-14T11:44:05.862Z,27.10
2022-12-14T11:46:49.385Z,29.75
2022-12-14T11:49:26.345Z,27.67
2022-12-14T11:51:59.907Z,26.30
2022-12-14T11:54:30.116Z,26.75
2022-12-14T11:57:03.262Z,24.77
2022-12-14T11:59:38.653Z,26.52
2022-12-14T12:02:21.561Z,26.45
2022-12-14T12:04:55.171Z,33.65
2022-12-14T12:07:27.124Z,27.00
2022-12-14T12:09:57.197Z,27.80
2022-12-14T12:12:24.997Z,25.70
2022-12-14T12:14:57.041Z,29.55
2022-12-14T12:17:39.521Z,33.30
2022-12-14T12:20:25.099Z,30.30
2022-12-14T12:22:57.354Z,29.58
2022-12-14T12:25:36.689Z,31.42
2022-12-14T12:28:14.801Z,30.75
2022-12-14T12:30:48.832Z,32.80
2022-12-14T12:33:23.908Z,33.08
2022-12-14T12:35:55.798Z,29.88
2022-12-14T12:38:36.771Z,32.00
2022-12-14T12:41:14.808Z,33.60
2022-12-14T12:43:49.973Z,32.22
2022-12-14T12:46:22.496Z,34.40
2022-12-14T12:48:54.403Z,37.22
2022-12-14T12:51:27.121Z,39.75
2022-12-14T12:53:59.428Z,38.65
2022-12-14T12:56:39.746Z,42.60
2022-12-14T12:59:09.684Z,35.15
2022-12-14T13:01:41.663Z,38.28
2022-12-14T13:04:16.722Z,36.85
2022-12-14T13:06:50.096Z,38.47
2022-12-14T13:09:25.613Z,38.20
2022-12-14T13:11:55.401Z,36.05
2022-12-14T13:14:33.516Z,37.35
2022-12-14T13:17:06.066Z,36.00
2022-12-14T13:19:55.569Z,36.60
2022-12-14T13:22:27.936Z,36.72
2022-12-14T13:24:59.867Z,36.53
2022-12-14T13:27:51.760Z,35.10
2022-12-14T13:30:25.712Z,35.78
2022-12-14T13:33:09.989Z,38.33
2022-12-14T13:35:55.315Z,37.30
2022-12-14T13:38:40.982Z,35.83
2022-12-14T13:41:18.910Z,36.33
2022-12-14T13:44:08.955Z,34.60
2022-12-14T13:46:37.008Z,36.85
2022-12-14T13:49:09.919Z,34.83
2022-12-14T13:51:40.583Z,35.67
2022-12-14T13:54:22.741Z,35.30
2022-12-14T13:56:50.911Z,33.70
2022-12-14T13:59:30.687Z,33.28
2022-12-14T14:02:00.760Z,32.15
2022-12-14T14:04:30.518Z,34.15
2022-12-14T14:07:38.597Z,40.63
2022-12-14T14:10:27.650Z,37.20
2022-12-14T14:12:55.424Z,40.30
2022-12-14T14:15:35.245Z,37.95
2022-12-14T14:18:08.405Z,35.83
2022-12-14T14:20:41.715Z,34.10
2022-12-14T14:23:31.478Z,33.45
2022-12-14T14:26:23.965Z,35.63
2022-12-14T14:29:16.397Z,35.05
2022-12-14T14:31:52.618Z,35.20
2022-12-14T14:34:26.803Z,36.40
2022-12-14T14:36:57.696Z,34.97
2022-12-14T14:42:24.112Z,36.45
2022-12-14T14:44:54.685Z,33.45
2022-12-14T14:47:27.246Z,31.63
2022-12-14T14:50:00.027Z,30.25
2022-12-14T14:52:47.543Z,33.80
2022-12-14T14:55:54.067Z,31.77
2022-12-14T14:58:26.789Z,31.10
2022-12-14T15:01:01.759Z,29.60
2022-12-14T15:03:42.225Z,31.52
2022-12-14T15:06:15.585Z,28.52
2022-12-14T15:08:47.529Z,27.30
2022-12-14T15:11:19.908Z,29.17
2022-12-14T15:13:53.337Z,28.25
2022-12-14T15:16:29.405Z,33.20
2022-12-14T15:19:23.792Z,34.10
2022-12-14T15:21:54.139Z,31.45
2022-12-14T15:24:24.040Z,29.50
2022-12-14T15:26:51.746Z,29.80
2022-12-14T15:29:24.031Z,30.70
2022-12-14T15:32:00.985Z,26.55
2022-12-14T15:34:30.209Z,28.25
2022-12-14T15:36:58.760Z,28.42
2022-12-14T15:39:29.282Z,27.08
2022-12-14T15:42:04.443Z,28.40
2022-12-14T15:44:32.257Z,28.17
2022-12-14T15:46:59.975Z,28.50
2022-12-14T15:49:27.667Z,28.60
2022-12-14T15:51:58.976Z,28.58
2022-12-14T15:54:27.291Z,27.13
2022-12-14T15:56:57.129Z,29.92
2022-12-14T15:59:31.315Z,29.52
2022-12-14T16:02:07.286Z,28.20
2022-12-14T16:04:37.827Z,26.42
2022-12-14T16:07:14.595Z,28.08
2022-12-14T16:09:45.279Z,27.55
2022-12-14T16:12:22.473Z,28.88
2022-12-14T16:14:54.365Z,26.13
2022-12-14T16:17:25.775Z,27.80
2022-12-14T16:20:00.136Z,29.27
2022-12-14T16:22:31.380Z,32.47
2022-12-14T16:25:18.985Z,31.60
2022-12-14T16:27:50.287Z,34.00
2022-12-14T16:30:29.881Z,31.52
2022-12-14T16:33:16.293Z,30.40
2022-12-14T16:35:45.503Z,31.20
2022-12-14T16:38:16.062Z,30.02
2022-12-14T16:40:54.538Z,28.40
2022-12-14T16:43:29.850Z,31.27
2022-12-14T16:46:11.045Z,32.25
2022-12-14T16:48:43.418Z,30.85
2022-12-14T16:51:50.895Z,31.90
2022-12-14T16:54:27.507Z,31.33
2022-12-14T16:57:00.934Z,27.60
2022-12-14T16:59:37.021Z,32.10
2022-12-14T17:02:06.381Z,27.50
2022-12-14T17:04:38.188Z,28.25
2022-12-14T17:07:05.889Z,26.45
2022-12-14T17:09:36.487Z,28.25
2022-12-14T17:12:14.460Z,27.38
2022-12-14T17:14:49.071Z,25.85
2022-12-14T17:17:20.925Z,23.35
2022-12-14T17:19:50.520Z,21.42
2022-12-14T17:22:23.940Z,23.30
2022-12-14T17:24:53.049Z,24.63
2022-12-14T17:27:22.348Z,24.88
2022-12-14T17:29:50.433Z,25.73
2022-12-14T17:32:18.897Z,23.67
2022-12-14T17:34:47.650Z,23.25
2022-12-14T17:37:18.181Z,22.88
2022-12-14T17:39:46.658Z,25.98
2022-12-14T17:42:17.989Z,24.55
2022-12-14T17:44:52.107Z,23.08
2022-12-14T17:47:19.988Z,23.70
2022-12-14T17:49:47.628Z,24.35
2022-12-14T17:52:19.447Z,24.38
2022-12-14T17:54:47.217Z,23.95
2022-12-14T17:57:20.191Z,27.75
2022-12-14T17:59:48.752Z,26.50
2022-12-14T18:02:37.694Z,26.65
2022-12-14T18:05:07.350Z,28.23
2022-12-14T18:07:34.986Z,26.60
2022-12-14T18:10:02.640Z,29.10
2022-12-14T18:12:31.616Z,28.35
2022-12-14T18:14:59.741Z,33.63
2022-12-14T18:17:27.835Z,29.02
2022-12-14T18:19:55.559Z,31.05
2022-12-14T18:22:23.196Z,27.52
2022-12-14T18:24:50.932Z,27.33
2022-12-14T18:27:18.595Z,28.35
2022-12-14T18:29:47.600Z,25.50
2022-12-14T18:32:15.582Z,29.70
2022-12-14T18:34:43.339Z,26.88
2022-12-14T18:37:11.627Z,29.58
2022-12-14T18:39:40.527Z,28.65
2022-12-14T18:42:08.284Z,25.90
2022-12-14T18:44:35.932Z,26.70
2022-12-14T18:47:33.191Z,28.40
2022-12-14T18:49:52.719Z,30.70
2022-12-14T18:52:20.440Z,27.05
2022-12-14T18:54:48.185Z,27.02
2022-12-14T18:57:16.041Z,24.98
2022-12-14T18:59:44.042Z,26.25
2022-12-14T19:02:15.969Z,26.05
2022-12-14T19:04:48.976Z,27.25
2022-12-14T19:07:16.995Z,26.67
2022-12-14T19:09:44.794Z,29.70
2022-12-14T19:12:12.531Z,30.00
2022-12-14T19:14:40.360Z,30.75
2022-12-14T19:17:08.339Z,28.15
2022-12-14T19:19:42.702Z,27.30
2022-12-14T19:22:13.143Z,25.67
2022-12-14T19:24:40.799Z,26.42
2022-12-14T19:27:08.477Z,26.48
2022-12-14T19:29:36.980Z,28.80
2022-12-14T19:32:05.996Z,29.15
2022-12-14T19:34:34.105Z,29.42
2022-12-14T19:37:03.276Z,29.42
2022-12-14T19:39:30.875Z,29.73
2022-12-14T19:41:58.970Z,28.45
2022-12-14T19:44:27.468Z,28.70
2022-12-14T19:46:55.692Z,28.35
2022-12-14T19:49:23.412Z,29.27
2022-12-14T19:51:51.074Z,30.50
2022-12-14T19:54:20.264Z,30.45
2022-12-14T19:56:49.288Z,28.40
2022-12-14T19:59:17.194Z,31.00
2022-12-14T20:01:48.148Z,31.25
2022-12-14T20:04:16.396Z,32.45
2022-12-14T20:06:44.220Z,31.95
2022-12-14T20:09:15.651Z,32.65
2022-12-14T20:11:45.860Z,31.15
2022-12-14T20:14:14.494Z,34.25
2022-12-14T20:16:42.359Z,35.08
2022-12-14T20:19:13.091Z,37.72
2022-12-14T20:21:41.016Z,36.03
2022-12-14T20:24:09.049Z,35.65
2022-12-14T20:26:36.753Z,34.85
2022-12-14T20:29:06.646Z,34.90
2022-12-14T20:31:34.841Z,33.97
2022-12-14T20:34:03.794Z,35.65
2022-12-14T20:36:32.595Z,34.22
2022-12-14T20:39:02.314Z,36.58
2022-12-14T20:41:31.770Z,35.20
2022-12-14T20:44:02.036Z,31.83
2022-12-14T20:46:33.208Z,31.30
2022-12-14T20:49:02.632Z,30.92
2022-12-14T20:51:31.146Z,31.45
2022-12-14T20:53:58.916Z,29.17
2022-12-14T20:56:27.303Z,30.70
2022-12-14T20:58:55.057Z,34.08
2022-12-14T21:01:23.124Z,35.15
2022-12-14T21:03:54.540Z,33.35
2022-12-14T21:06:23.568Z,34.50
2022-12-14T21:09:09.769Z,34.67
2022-12-14T21:11:57.049Z,35.63
2022-12-14T21:14:26.969Z,36.28
2022-12-14T21:16:55.313Z,35.58
2022-12-14T21:19:24.583Z,36.50
2022-12-14T21:21:54.001Z,34.75
2022-12-14T21:25:00.515Z,36.97
2022-12-14T21:27:15.844Z,38.08
2022-12-14T21:29:43.877Z,37.20
2022-12-14T21:32:12.490Z,34.58
2022-12-14T21:34:42.847Z,33.90
2022-12-14T21:37:11.191Z,32.92
2022-12-14T21:39:39.175Z,33.60
2022-12-14T21:42:13.220Z,33.80
2022-12-14T21:44:42.497Z,33.78
2022-12-14T21:47:12.785Z,32.55
2022-12-14T21:49:43.255Z,30.42
2022-12-14T21:52:12.734Z,29.15
2022-12-14T21:54:41.125Z,29.88
2022-12-14T21:57:26.437Z,33.38
2022-12-14T21:59:55.778Z,31.90
2022-12-14T22:02:25.730Z,30.42
2022-12-14T22:04:57.957Z,30.10
2022-12-14T22:07:30.701Z,29.80
2022-12-14T22:09:58.459Z,28.25
2022-12-14T22:12:26.706Z,30.88
2022-12-14T22:14:54.330Z,28.80
2022-12-14T22:17:22.090Z,27.75
2022-12-14T22:19:50.977Z,30.05
2022-12-14T22:22:20.192Z,30.17
2022-12-14T22:24:49.672Z,30.08
2022-12-14T22:27:17.864Z,32.45
2022-12-14T22:29:45.552Z,30.40
2022-12-14T22:32:13.697Z,32.63
2022-12-14T22:34:41.507Z,32.85
2022-12-14T22:37:09.324Z,30.60
2022-12-14T22:39:38.307Z,34.38
2022-12-14T22:42:06.341Z,35.75
2022-12-14T22:44:33.985Z,33.75
2022-12-14T22:47:01.675Z,31.80
2022-12-14T22:49:29.416Z,34.50
2022-12-14T22:51:57.115Z,31.33
2022-12-14T22:54:27.066Z,31.25
2022-12-14T22:57:01.117Z,30.67
2022-12-14T22:59:33.402Z,31.85
2022-12-14T23:02:01.384Z,32.65
2022-12-14T23:04:29.530Z,31.25
2022-12-14T23:06:57.354Z,31.63
2022-12-14T23:09:42.366Z,31.00
2022-12-14T23:12:29.060Z,29.00
2022-12-14T23:15:14.311Z,26.75
2022-12-14T23:17:59.820Z,27.50
2022-12-14T23:20:45.210Z,26.30
2022-12-14T23:23:30.933Z,26.25
2022-12-14T23:26:20.177Z,25.90
2022-12-14T23:29:06.806Z,24.98
2022-12-14T23:31:52.051Z,26.35
2022-12-14T23:34:37.334Z,26.45
2022-12-14T23:37:22.581Z,24.85
2022-12-14T23:40:07.964Z,25.55
2022-12-14T23:42:53.438Z,27.60
2022-12-14T23:45:39.956Z,27.92
2022-12-14T23:48:25.270Z,26.02
2022-12-14T23:51:10.547Z,26.00
2022-12-14T23:53:55.854Z,25.33
2022-12-14T23:56:41.185Z,25.83
2022-12-14T23:59:32.005Z,26.90
